Time;durP1;ratioP1;P1;durP2;ratioP2;P2;SDS_P1;SDS_P2;PMS_P1;PMS_P2;Temp;Humidity;BMP_temperature;BMP_pressure;BME280_temperature;BME280_humidity;BME280_pressure;Samples;Min_cycle;Max_cycle;Signal;HPM_P1;HPM_P2
2021/01/10 00:00:46;;;;;;;13.07;6.47;;;2.00;80.70;;;;;;5056248;28;20103;-84
2021/01/10 00:03:14;;;;;;;12.83;6.67;;;2.00;81.00;;;;;;5056641;28;20053;-84
2021/01/10 00:05:40;;;;;;;14.60;6.53;;;2.10;80.60;;;;;;5056228;28;20489;-83
2021/01/10 00:08:06;;;;;;;12.67;6.37;;;2.10;81.00;;;;;;5056628;28;20036;-83
2021/01/10 00:10:32;;;;;;;14.60;6.17;;;2.10;80.20;;;;;;5056211;28;20025;-84
2021/01/10 00:13:02;;;;;;;14.87;6.63;;;2.00;80.10;;;;;;5036937;28;20042;-83
2021/01/10 00:15:29;;;;;;;11.90;5.57;;;2.00;80.10;;;;;;5034834;28;20189;-83
2021/01/10 00:17:55;;;;;;;10.50;5.73;;;2.00;80.50;;;;;;5035314;28;20033;-84
2021/01/10 00:20:21;;;;;;;11.13;5.97;;;2.00;80.90;;;;;;5035140;28;20072;-84
2021/01/10 00:22:57;;;;;;;11.93;5.90;;;2.00;80.90;;;;;;5034737;28;20489;-84
2021/01/10 00:25:24;;;;;;;11.57;6.37;;;2.00;80.70;;;;;;5035245;28;20022;-84
2021/01/10 00:27:50;;;;;;;13.23;6.40;;;2.00;80.60;;;;;;5035920;28;20028;-84
2021/01/10 00:30:19;;;;;;;10.37;5.63;;;2.00;79.70;;;;;;5035430;28;20025;-83
2021/01/10 00:32:52;;;;;;;11.07;5.83;;;2.10;79.80;;;;;;5035600;28;20112;-84
2021/01/10 00:35:19;;;;;;;13.83;6.03;;;2.10;79.40;;;;;;5035241;28;20029;-84
2021/01/10 00:37:50;;;;;;;12.67;5.70;;;2.10;79.20;;;;;;5034184;28;20056;-84
2021/01/10 00:40:17;;;;;;;11.80;5.77;;;2.10;79.50;;;;;;5036119;28;20025;-84
2021/01/10 00:42:43;;;;;;;11.47;5.90;;;2.10;79.80;;;;;;5034715;28;20560;-84
2021/01/10 00:45:10;;;;;;;10.37;5.57;;;2.10;79.70;;;;;;5035951;28;20022;-84
2021/01/10 00:47:35;;;;;;;11.93;5.70;;;2.10;79.90;;;;;;5035428;28;20481;-84
2021/01/10 00:50:02;;;;;;;10.40;5.37;;;2.10;80.00;;;;;;5034826;28;20041;-84
2021/01/10 00:52:29;;;;;;;11.83;5.90;;;2.00;79.30;;;;;;5034775;28;20124;-85
2021/01/10 00:54:55;;;;;;;11.33;5.37;;;2.00;79.90;;;;;;5035626;28;20496;-84
2021/01/10 00:57:21;;;;;;;11.70;5.43;;;2.00;80.20;;;;;;5034726;28;20022;-84
2021/01/10 00:59:46;;;;;;;10.57;5.60;;;2.00;80.40;;;;;;5035274;28;20460;-84
2021/01/10 01:02:12;;;;;;;9.67;5.70;;;2.10;80.30;;;;;;5035701;28;20070;-84
2021/01/10 01:04:38;;;;;;;10.27;5.27;;;2.10;80.60;;;;;;5035150;28;20116;-84
2021/01/10 01:07:04;;;;;;;11.60;5.73;;;2.00;80.70;;;;;;5035298;28;20477;-84
2021/01/10 01:09:30;;;;;;;10.37;5.60;;;2.00;80.50;;;;;;5035555;28;20429;-80
2021/01/10 01:11:55;;;;;;;10.77;5.27;;;2.00;80.80;;;;;;5035364;28;20048;-83
2021/01/10 01:14:21;;;;;;;11.00;5.87;;;2.10;80.80;;;;;;5035195;28;20393;-83
2021/01/10 01:16:47;;;;;;;12.40;6.77;;;2.00;80.40;;;;;;5033982;28;20466;-84
2021/01/10 01:19:13;;;;;;;11.13;5.37;;;2.00;80.80;;;;;;5033825;28;20033;-82
2021/01/10 01:21:39;;;;;;;14.80;6.53;;;2.00;81.10;;;;;;5033712;28;20116;-83
2021/01/10 01:24:05;;;;;;;11.27;5.87;;;2.00;81.00;;;;;;5034149;28;20053;-83
2021/01/10 01:26:31;;;;;;;12.87;6.10;;;2.00;80.90;;;;;;5033754;28;20109;-79
2021/01/10 01:28:57;;;;;;;11.23;6.27;;;2.00;80.20;;;;;;5034217;28;20079;-83
2021/01/10 01:31:25;;;;;;;10.63;5.70;;;2.00;80.20;;;;;;5034328;28;20466;-84
2021/01/10 01:33:51;;;;;;;13.57;6.07;;;2.10;80.30;;;;;;5034533;28;20021;-84
2021/01/10 01:36:19;;;;;;;15.23;6.23;;;2.00;79.90;;;;;;5034218;28;20136;-84
2021/01/10 01:38:46;;;;;;;11.00;6.07;;;2.00;79.60;;;;;;5033528;28;20457;-84
2021/01/10 01:41:12;;;;;;;12.00;6.00;;;2.00;79.30;;;;;;5034023;28;20029;-83
2021/01/10 01:43:40;;;;;;;13.43;5.60;;;2.00;80.10;;;;;;5033406;28;20029;-84
2021/01/10 01:46:09;;;;;;;11.63;5.43;;;2.00;79.30;;;;;;5033731;28;20036;-83
2021/01/10 01:48:41;;;;;;;11.70;5.97;;;1.90;79.30;;;;;;5034353;28;20026;-83
2021/01/10 01:51:08;;;;;;;11.90;5.70;;;1.90;79.50;;;;;;5034115;28;20478;-84
2021/01/10 01:53:34;;;;;;;10.57;5.63;;;1.90;79.60;;;;;;5034193;28;20025;-82
2021/01/10 01:55:59;;;;;;;8.37;5.40;;;1.80;79.30;;;;;;5033783;28;20031;-83
2021/01/10 01:58:26;;;;;;;10.83;5.57;;;1.80;79.20;;;;;;5033477;28;20022;-83
2021/01/10 02:00:53;;;;;;;11.23;5.60;;;1.80;78.90;;;;;;5034010;28;20107;-83
2021/01/10 02:03:37;;;;;;;9.13;5.00;;;1.80;79.00;;;;;;5033399;28;20112;-83
2021/01/10 02:06:08;;;;;;;10.57;4.80;;;1.80;78.90;;;;;;5034828;28;20037;-84
2021/01/10 02:08:36;;;;;;;9.88;5.20;;;1.80;79.10;;;;;;5034016;28;20100;-82
2021/01/10 02:11:03;;;;;;;9.97;6.03;;;1.70;79.20;;;;;;5033568;28;20044;-83
2021/01/10 02:13:32;;;;;;;10.07;5.43;;;1.70;79.10;;;;;;5034089;28;20475;-84
2021/01/10 02:15:59;;;;;;;9.07;5.43;;;1.70;78.90;;;;;;5032956;28;20113;-83
2021/01/10 02:18:27;;;;;;;10.33;5.27;;;1.70;78.90;;;;;;5034205;28;20489;-84
2021/01/10 02:20:54;;;;;;;10.13;5.20;;;1.70;79.30;;;;;;5033143;28;20058;-83
2021/01/10 02:23:24;;;;;;;9.50;4.97;;;1.70;79.50;;;;;;5033572;28;20040;-83
2021/01/10 02:25:50;;;;;;;9.27;5.13;;;1.60;79.40;;;;;;5033727;28;20523;-83
2021/01/10 02:28:23;;;;;;;9.93;4.97;;;1.70;79.30;;;;;;5033224;28;20029;-83
2021/01/10 02:30:49;;;;;;;9.30;5.20;;;1.70;79.20;;;;;;5034144;28;20032;-83
2021/01/10 02:33:22;;;;;;;8.57;4.53;;;1.60;79.10;;;;;;5032722;28;20072;-83
2021/01/10 02:35:50;;;;;;;10.47;5.00;;;1.60;79.20;;;;;;5032832;28;20022;-83
2021/01/10 02:38:47;;;;;;;9.37;4.90;;;1.60;79.50;;;;;;5033987;28;20025;-83
2021/01/10 02:41:39;;;;;;;12.37;5.43;;;1.60;79.60;;;;;;5034257;28;20087;-83
2021/01/10 02:44:25;;;;;;;8.57;4.97;;;1.50;80.00;;;;;;5034253;28;20063;-82
2021/01/10 02:46:52;;;;;;;10.33;4.93;;;1.50;80.20;;;;;;5032500;28;20025;-83
2021/01/10 02:49:18;;;;;;;10.90;5.57;;;1.50;80.30;;;;;;5033828;28;20076;-83
2021/01/10 02:51:45;;;;;;;11.60;4.50;;;1.40;80.30;;;;;;5033465;28;20080;-83
2021/01/10 02:54:12;;;;;;;10.63;5.03;;;1.40;80.30;;;;;;5032617;28;20029;-83
2021/01/10 02:56:52;;;;;;;10.17;5.10;;;1.40;80.80;;;;;;5032804;28;20117;-83
2021/01/10 02:59:22;;;;;;;8.67;4.87;;;1.50;80.90;;;;;;5032947;28;20022;-84
2021/01/10 03:01:49;;;;;;;9.47;4.90;;;1.40;81.00;;;;;;5035312;28;20359;-84
2021/01/10 03:04:16;;;;;;;12.97;5.50;;;1.40;81.00;;;;;;5036835;28;20523;-83
2021/01/10 03:06:43;;;;;;;9.87;5.40;;;1.40;81.00;;;;;;5036414;28;20033;-84
2021/01/10 03:09:11;;;;;;;8.73;5.20;;;1.30;81.20;;;;;;5036710;28;20025;-84
2021/01/10 03:11:39;;;;;;;10.73;5.17;;;1.40;81.60;;;;;;5036756;28;20041;-77
2021/01/10 03:14:05;;;;;;;10.30;5.17;;;1.40;81.60;;;;;;5036361;28;20390;-85
2021/01/10 03:16:31;;;;;;;9.60;4.90;;;1.30;81.70;;;;;;5037558;28;20021;-85
2021/01/10 03:18:57;;;;;;;9.90;4.70;;;1.30;81.80;;;;;;5035952;28;20706;-85
2021/01/10 03:21:22;;;;;;;11.07;5.10;;;1.30;81.90;;;;;;5037487;28;20117;-85
2021/01/10 03:23:48;;;;;;;9.57;5.20;;;1.30;81.80;;;;;;5036995;28;20057;-85
2021/01/10 03:26:13;;;;;;;11.37;5.50;;;1.30;81.70;;;;;;5037366;28;20048;-85
2021/01/10 03:28:39;;;;;;;12.50;5.50;;;1.40;81.70;;;;;;5035918;28;20030;-84
2021/01/10 03:31:05;;;;;;;8.47;4.50;;;1.40;81.70;;;;;;5036410;28;20033;-85
2021/01/10 03:33:30;;;;;;;12.30;5.60;;;1.30;81.80;;;;;;5036394;28;20037;-85
2021/01/10 03:35:56;;;;;;;9.37;4.90;;;1.40;81.90;;;;;;5036909;28;20056;-85
2021/01/10 03:38:21;;;;;;;10.20;4.70;;;1.40;81.90;;;;;;5035750;28;20390;-85
2021/01/10 03:40:47;;;;;;;10.40;5.50;;;1.30;81.80;;;;;;5036551;28;20022;-86
2021/01/10 03:43:13;;;;;;;9.97;5.10;;;1.40;82.00;;;;;;5036018;28;20458;-85
2021/01/10 03:45:39;;;;;;;11.07;5.37;;;1.40;81.70;;;;;;5035798;28;20083;-81
2021/01/10 03:48:04;;;;;;;10.37;5.10;;;1.40;81.50;;;;;;5037101;28;20045;-84
2021/01/10 03:50:30;;;;;;;10.63;5.40;;;1.40;81.80;;;;;;5036797;28;20128;-84
2021/01/10 03:52:55;;;;;;;10.73;5.53;;;1.40;81.60;;;;;;5036491;28;20041;-85
2021/01/10 03:55:21;;;;;;;10.60;5.20;;;1.40;81.60;;;;;;5035981;28;20034;-85
2021/01/10 03:57:47;;;;;;;10.80;5.13;;;1.40;81.50;;;;;;5035583;28;20026;-85
2021/01/10 04:00:13;;;;;;;9.80;5.33;;;1.30;81.70;;;;;;5036867;28;20057;-85
2021/01/10 04:02:39;;;;;;;9.37;4.90;;;1.40;81.60;;;;;;5035783;28;20029;-84
2021/01/10 04:05:06;;;;;;;12.77;5.50;;;1.30;81.60;;;;;;5035548;28;20066;-85
2021/01/10 04:07:31;;;;;;;10.33;5.00;;;1.20;81.80;;;;;;5035817;28;20036;-85
2021/01/10 04:09:58;;;;;;;9.73;5.43;;;1.20;82.20;;;;;;5034983;28;20029;-85
2021/01/10 04:12:23;;;;;;;10.80;5.13;;;1.10;82.50;;;;;;5034971;28;20128;-85
2021/01/10 04:14:55;;;;;;;10.40;5.37;;;1.10;82.60;;;;;;5034714;28;20060;-85
2021/01/10 04:17:28;;;;;;;8.32;4.20;;;1.10;82.70;;;;;;5036702;28;20018;-85
2021/01/10 04:19:54;;;;;;;12.17;5.67;;;1.20;82.80;;;;;;5036106;28;20136;-85
2021/01/10 04:22:21;;;;;;;12.10;5.17;;;1.20;82.50;;;;;;5036407;28;20072;-84
2021/01/10 04:24:47;;;;;;;8.80;4.67;;;1.10;82.40;;;;;;5034730;28;20029;-85
2021/01/10 04:27:13;;;;;;;10.03;4.90;;;1.10;82.70;;;;;;5035712;28;20120;-84
2021/01/10 04:29:38;;;;;;;9.83;4.93;;;1.20;82.80;;;;;;5035118;28;20140;-84
2021/01/10 04:32:04;;;;;;;9.87;5.23;;;1.10;82.70;;;;;;5034503;28;20033;-84
2021/01/10 04:34:30;;;;;;;11.60;5.47;;;1.10;82.40;;;;;;5035180;28;20095;-84
2021/01/10 04:36:55;;;;;;;10.13;5.20;;;1.00;82.90;;;;;;5034561;28;20107;-84
2021/01/10 04:39:21;;;;;;;10.97;5.47;;;1.00;83.10;;;;;;5035100;28;20482;-85
2021/01/10 04:41:47;;;;;;;11.70;5.47;;;1.00;83.00;;;;;;5035296;28;20077;-84
2021/01/10 04:44:13;;;;;;;10.10;5.13;;;1.00;82.90;;;;;;5034986;28;20021;-85
2021/01/10 04:46:40;;;;;;;8.43;4.80;;;1.00;83.00;;;;;;5035939;28;20030;-84
2021/01/10 04:49:06;;;;;;;10.00;5.27;;;1.00;83.10;;;;;;5034363;28;20087;-84
2021/01/10 04:51:33;;;;;;;12.00;5.40;;;0.90;83.30;;;;;;5035534;28;20068;-85
2021/01/10 04:54:01;;;;;;;10.67;5.30;;;0.90;83.50;;;;;;5034152;28;20028;-84
2021/01/10 04:56:29;;;;;;;11.73;5.47;;;0.90;83.50;;;;;;5034666;28;20386;-85
2021/01/10 04:58:56;;;;;;;9.20;4.83;;;0.90;83.50;;;;;;5035224;28;20021;-84
2021/01/10 05:01:23;;;;;;;10.03;5.40;;;0.80;83.50;;;;;;5034562;28;20037;-84
2021/01/10 05:03:53;;;;;;;8.93;4.83;;;0.80;83.60;;;;;;5034963;28;20029;-84
2021/01/10 05:06:20;;;;;;;9.57;4.57;;;0.80;83.60;;;;;;5036024;28;20025;-85
2021/01/10 05:08:45;;;;;;;9.73;5.13;;;0.80;83.30;;;;;;5035251;28;20406;-84
2021/01/10 05:11:11;;;;;;;10.37;5.30;;;0.80;83.20;;;;;;5034513;28;20032;-85
2021/01/10 05:13:37;;;;;;;8.30;4.37;;;0.90;83.10;;;;;;5034096;28;20458;-84
2021/01/10 05:16:05;;;;;;;9.40;4.70;;;0.90;83.00;;;;;;5034634;28;20025;-84
2021/01/10 05:18:31;;;;;;;9.90;4.67;;;0.80;83.10;;;;;;5034259;28;20026;-84
2021/01/10 05:20:57;;;;;;;9.23;4.87;;;0.90;83.20;;;;;;5034843;28;20049;-85
2021/01/10 05:23:27;;;;;;;7.37;4.60;;;0.90;82.90;;;;;;5033895;28;20029;-84
2021/01/10 05:26:06;;;;;;;9.70;4.97;;;0.90;82.70;;;;;;5033676;28;20108;-84
2021/01/10 05:28:34;;;;;;;8.53;4.70;;;0.90;82.60;;;;;;5035206;28;20091;-84
2021/01/10 05:31:10;;;;;;;9.03;4.23;;;0.80;82.40;;;;;;5034731;28;20057;-84
2021/01/10 05:33:51;;;;;;;8.47;4.37;;;0.80;82.40;;;;;;5033874;28;20048;-85
2021/01/10 05:36:28;;;;;;;8.85;3.38;;;0.70;82.60;;;;;;5035054;28;20025;-84
2021/01/10 05:38:54;;;;;;;7.60;4.30;;;0.70;82.60;;;;;;5034329;28;20033;-85
2021/01/10 05:41:21;;;;;;;8.43;4.43;;;0.60;82.50;;;;;;5034161;28;20025;-84
2021/01/10 05:43:58;;;;;;;9.07;4.33;;;0.60;82.60;;;;;;5034578;28;20462;-82
2021/01/10 05:46:24;;;;;;;9.40;4.40;;;0.60;82.90;;;;;;5035045;28;20021;-85
2021/01/10 05:48:50;;;;;;;8.07;4.20;;;0.60;82.80;;;;;;5034425;28;20049;-84
2021/01/10 05:51:17;;;;;;;9.87;4.27;;;0.40;83.20;;;;;;5034561;28;20040;-84
2021/01/10 05:53:42;;;;;;;9.47;4.40;;;0.40;83.30;;;;;;5033829;28;20036;-85
2021/01/10 05:56:08;;;;;;;9.50;4.60;;;0.30;83.40;;;;;;5033474;28;20393;-84
2021/01/10 05:58:34;;;;;;;8.13;4.03;;;0.30;83.60;;;;;;5034646;28;20032;-85
2021/01/10 06:01:09;;;;;;;9.47;4.87;;;0.30;83.40;;;;;;5033130;28;20531;-84
2021/01/10 06:03:36;;;;;;;8.43;4.97;;;0.30;83.40;;;;;;5034636;28;20029;-85
2021/01/10 06:06:06;;;;;;;8.03;4.43;;;0.30;83.30;;;;;;5033027;28;20029;-84
2021/01/10 06:08:37;;;;;;;7.27;3.97;;;0.30;83.40;;;;;;5034439;28;20041;-84
2021/01/10 06:11:23;;;;;;;9.07;4.43;;;0.20;83.30;;;;;;5034293;28;20029;-85
2021/01/10 06:13:58;;;;;;;10.53;4.63;;;0.20;83.40;;;;;;5032717;28;20033;-83
2021/01/10 06:16:26;;;;;;;10.57;4.43;;;0.20;83.50;;;;;;5033372;28;20029;-85
2021/01/10 06:18:55;;;;;;;9.57;4.70;;;0.20;83.40;;;;;;5032800;28;20031;-85
2021/01/10 06:21:22;;;;;;;9.40;4.40;;;0.20;83.40;;;;;;5033230;28;20053;-85
2021/01/10 06:23:51;;;;;;;8.23;4.57;;;0.20;83.40;;;;;;5032941;28;20065;-81
2021/01/10 06:26:19;;;;;;;9.47;4.73;;;0.10;83.20;;;;;;5033135;28;20029;-85
2021/01/10 06:28:54;;;;;;;9.03;4.47;;;0.20;83.00;;;;;;5034149;28;20381;-85
2021/01/10 06:31:28;;;;;;;8.10;4.53;;;0.10;82.90;;;;;;5033384;28;20032;-84
2021/01/10 06:33:56;;;;;;;8.33;4.10;;;0.10;83.00;;;;;;5033520;28;20466;-84
2021/01/10 06:36:24;;;;;;;8.10;4.30;;;0.10;83.20;;;;;;5035686;28;20079;-85
2021/01/10 06:38:57;;;;;;;9.67;4.50;;;0.10;83.10;;;;;;5039990;28;20561;-81
2021/01/10 06:41:36;;;;;;;9.87;4.67;;;0.00;83.20;;;;;;5039653;28;20382;-85
2021/01/10 06:44:09;;;;;;;6.77;3.70;;;0.00;83.20;;;;;;5039339;28;20378;-85
2021/01/10 06:46:35;;;;;;;9.33;4.53;;;0.00;83.10;;;;;;5039762;28;20473;-85
2021/01/10 06:49:04;;;;;;;9.37;4.80;;;0.00;83.10;;;;;;5038843;28;20060;-84
2021/01/10 06:51:31;;;;;;;8.63;4.40;;;-0.10;83.00;;;;;;5040735;28;20039;-85
2021/01/10 06:54:03;;;;;;;7.73;4.13;;;-0.10;83.10;;;;;;5038899;28;20032;-85
2021/01/10 06:56:28;;;;;;;9.98;5.25;;;-0.20;83.80;;;;;;5040801;28;20064;-84
2021/01/10 06:59:19;;;;;;;8.03;4.20;;;-0.20;83.60;;;;;;5040098;28;20029;-84
2021/01/10 07:01:47;;;;;;;9.23;4.60;;;-0.20;83.40;;;;;;5040760;28;20112;-84
2021/01/10 07:04:34;;;;;;;9.83;4.93;;;-0.30;83.30;;;;;;5039968;28;20104;-84
2021/01/10 07:06:59;;;;;;;8.77;4.50;;;-0.30;83.60;;;;;;5024648;28;20064;-85
2021/01/10 07:09:25;;;;;;;10.70;5.00;;;-0.40;83.90;;;;;;5039550;28;20063;-84
2021/01/10 07:11:51;;;;;;;8.33;4.50;;;-0.40;84.00;;;;;;5040430;28;20112;-85
2021/01/10 07:14:17;;;;;;;7.20;4.17;;;-0.30;83.90;;;;;;5039793;28;20076;-85
2021/01/10 07:16:44;;;;;;;11.07;4.70;;;-0.20;83.90;;;;;;5039802;28;20025;-85
2021/01/10 07:19:14;;;;;;;9.13;4.67;;;-0.20;83.70;;;;;;5038789;28;20034;-85
2021/01/10 07:21:41;;;;;;;8.97;4.60;;;-0.20;83.90;;;;;;5040706;28;20056;-85
2021/01/10 07:24:12;;;;;;;9.57;5.17;;;-0.20;83.60;;;;;;5039797;28;20021;-84
2021/01/10 07:26:41;;;;;;;9.73;4.78;;;-0.10;83.70;;;;;;5038914;28;20022;-84
2021/01/10 07:29:26;;;;;;;7.13;4.03;;;-0.10;83.50;;;;;;5038586;28;20037;-84
2021/01/10 07:32:02;;;;;;;9.33;4.97;;;-0.10;83.20;;;;;;5039101;28;20037;-85
2021/01/10 07:34:28;;;;;;;9.43;4.63;;;-0.10;83.50;;;;;;5039431;28;20025;-85
2021/01/10 07:36:59;;;;;;;9.00;4.53;;;0.00;83.00;;;;;;5038884;28;20033;-84
2021/01/10 07:39:26;;;;;;;10.50;4.93;;;0.00;82.90;;;;;;5039148;28;20018;-84
2021/01/10 07:42:12;;;;;;;10.03;4.20;;;0.10;82.80;;;;;;5040080;28;20037;-85
2021/01/10 07:44:48;;;;;;;9.33;4.87;;;0.00;82.60;;;;;;5039185;28;20022;-85
2021/01/10 07:47:14;;;;;;;8.63;4.70;;;0.10;82.50;;;;;;5038739;28;20029;-85
2021/01/10 07:49:56;;;;;;;10.17;5.17;;;0.10;82.80;;;;;;5035315;28;20025;-85
2021/01/10 07:52:48;;;;;;;12.02;5.22;;;0.10;83.10;;;;;;5037001;28;20036;-84
2021/01/10 07:55:17;;;;;;;9.50;4.67;;;0.10;83.20;;;;;;5035823;28;20036;-84
2021/01/10 07:57:53;;;;;;;9.67;4.90;;;0.10;82.80;;;;;;5035619;28;20029;-84
2021/01/10 08:00:19;;;;;;;10.60;4.60;;;0.10;82.90;;;;;;5035702;28;20037;-83
2021/01/10 08:02:54;;;;;;;8.53;4.17;;;0.20;82.60;;;;;;5035721;28;20025;-85
2021/01/10 08:05:41;;;;;;;9.67;4.50;;;0.20;82.00;;;;;;5035537;28;20026;-83
2021/01/10 08:08:17;;;;;;;8.00;4.47;;;0.30;81.90;;;;;;5036181;28;20105;-85
2021/01/10 08:10:46;;;;;;;10.10;4.97;;;0.20;81.90;;;;;;5035587;28;20223;-84
2021/01/10 08:13:31;;;;;;;10.53;4.97;;;0.20;82.00;;;;;;5034788;28;20041;-84
2021/01/10 08:15:56;;;;;;;8.23;4.20;;;0.30;82.40;;;;;;5034958;28;20017;-84
2021/01/10 08:18:24;;;;;;;10.13;4.73;;;0.30;82.20;;;;;;5036513;28;20029;-84
2021/01/10 08:20:54;;;;;;;12.50;5.27;;;0.30;82.00;;;;;;5034843;28;20192;-84
2021/01/10 08:23:20;;;;;;;10.13;4.90;;;0.30;82.00;;;;;;5034971;28;20033;-84
2021/01/10 08:25:46;;;;;;;12.27;5.00;;;0.40;81.90;;;;;;5036064;28;20033;-84
2021/01/10 08:28:19;;;;;;;11.63;5.47;;;0.40;82.10;;;;;;5034638;28;20033;-84
2021/01/10 08:30:45;;;;;;;8.90;4.47;;;0.40;82.50;;;;;;5035356;28;20025;-85
2021/01/10 08:33:21;;;;;;;12.93;5.03;;;0.40;81.90;;;;;;5035008;28;20033;-85
2021/01/10 08:35:48;;;;;;;9.30;4.80;;;0.50;81.60;;;;;;5036253;28;20022;-85
2021/01/10 08:38:14;;;;;;;8.40;4.90;;;0.60;81.20;;;;;;5033792;28;20017;-84
2021/01/10 08:40:41;;;;;;;10.63;4.70;;;0.50;80.90;;;;;;5035153;28;20053;-85
2021/01/10 08:43:06;;;;;;;10.10;4.80;;;0.50;80.90;;;;;;5035590;28;20056;-84
2021/01/10 08:45:32;;;;;;;10.10;5.27;;;0.50;81.20;;;;;;5035419;28;20414;-86
2021/01/10 08:48:03;;;;;;;9.20;5.03;;;0.50;82.40;;;;;;5034157;28;20533;-84
2021/01/10 08:50:41;;;;;;;8.20;4.90;;;0.50;81.60;;;;;;5034685;28;20476;-85
2021/01/10 08:53:07;;;;;;;11.13;5.47;;;0.60;81.30;;;;;;5034411;28;20067;-85
2021/01/10 08:55:38;;;;;;;10.83;5.23;;;0.50;81.30;;;;;;5035093;28;20462;-84
2021/01/10 08:58:07;;;;;;;9.03;4.77;;;0.50;81.20;;;;;;5034176;28;20443;-85
2021/01/10 09:00:34;;;;;;;9.97;4.80;;;0.60;81.10;;;;;;5034580;28;20263;-85
2021/01/10 09:03:12;;;;;;;9.53;4.70;;;0.50;81.00;;;;;;5035185;28;20057;-85
2021/01/10 09:05:38;;;;;;;10.17;4.90;;;0.60;81.30;;;;;;5034455;28;20053;-85
2021/01/10 09:08:06;;;;;;;10.63;5.40;;;0.70;81.10;;;;;;5035328;28;20458;-85
2021/01/10 09:10:42;;;;;;;9.40;5.10;;;0.80;80.50;;;;;;5034884;28;20030;-85
2021/01/10 09:13:15;;;;;;;7.67;4.40;;;0.80;80.00;;;;;;5034043;28;20528;-84
2021/01/10 09:15:44;;;;;;;10.93;5.23;;;0.90;80.00;;;;;;5035345;28;20087;-85
2021/01/10 09:18:19;;;;;;;10.80;5.43;;;0.90;79.90;;;;;;5033755;28;20026;-85
2021/01/10 09:20:54;;;;;;;10.53;4.87;;;0.80;80.20;;;;;;5033681;28;20057;-85
2021/01/10 09:23:20;;;;;;;9.93;5.20;;;0.80;80.40;;;;;;5033854;28;20505;-84
2021/01/10 09:25:46;;;;;;;9.60;5.00;;;0.90;80.70;;;;;;5034448;28;20055;-85
2021/01/10 09:28:15;;;;;;;11.63;5.40;;;0.90;80.10;;;;;;5033584;28;20028;-85
2021/01/10 09:30:50;;;;;;;13.17;5.90;;;1.00;79.80;;;;;;5033979;28;20028;-85
2021/01/10 09:33:21;;;;;;;10.70;6.20;;;1.00;79.80;;;;;;5034606;28;20547;-85
2021/01/10 09:35:47;;;;;;;10.55;5.40;;;0.90;80.20;;;;;;5034198;28;20026;-85
2021/01/10 09:38:18;;;;;;;12.20;5.93;;;0.90;80.60;;;;;;5033521;28;20561;-85
2021/01/10 09:41:05;;;;;;;10.53;5.53;;;0.90;80.70;;;;;;5034069;28;20076;-85
2021/01/10 09:43:38;;;;;;;12.43;6.37;;;0.90;80.40;;;;;;5033872;28;20064;-85
2021/01/10 09:46:24;;;;;;;11.47;5.67;;;0.90;80.60;;;;;;5033360;28;20425;-85
2021/01/10 09:49:00;;;;;;;10.80;5.63;;;1.00;80.40;;;;;;5046336;28;20037;-85
2021/01/10 09:51:38;;;;;;;9.73;5.00;;;1.00;79.90;;;;;;5054574;28;20029;-84
2021/01/10 09:54:15;;;;;;;11.20;5.27;;;1.00;79.50;;;;;;5054071;28;20021;-85
2021/01/10 09:56:41;;;;;;;10.20;5.10;;;1.00;79.80;;;;;;5053740;28;20025;-85
2021/01/10 09:59:42;;;;;;;10.47;5.43;;;1.10;79.40;;;;;;5054174;28;20462;-85
2021/01/10 10:02:12;;;;;;;11.43;4.90;;;1.10;79.40;;;;;;5052489;28;20029;-85
2021/01/10 10:04:38;;;;;;;10.67;5.03;;;1.10;79.40;;;;;;5054662;28;20029;-85
2021/01/10 10:07:04;;;;;;;11.37;5.13;;;1.10;79.20;;;;;;5053868;28;20028;-86
2021/01/10 10:09:48;;;;;;;12.03;5.50;;;1.20;78.80;;;;;;5053491;28;20167;-85
2021/01/10 10:12:15;;;;;;;11.60;5.53;;;1.20;78.50;;;;;;5051890;28;20040;-85
2021/01/10 10:14:52;;;;;;;8.30;4.80;;;1.20;78.80;;;;;;5054315;28;20032;-85
2021/01/10 10:17:24;;;;;;;11.07;5.20;;;1.20;78.90;;;;;;5052348;28;20469;-85
2021/01/10 10:19:50;;;;;;;11.73;5.47;;;1.20;78.40;;;;;;5052812;28;20045;-84
2021/01/10 10:22:31;;;;;;;8.30;4.33;;;1.30;78.80;;;;;;5053756;28;20378;-84
2021/01/10 10:24:58;;;;;;;9.87;5.07;;;1.30;78.70;;;;;;5052853;28;20029;-85
2021/01/10 10:27:26;;;;;;;9.43;4.50;;;1.40;78.50;;;;;;5052750;28;20082;-84
2021/01/10 10:29:52;;;;;;;8.73;4.57;;;1.40;78.60;;;;;;5053027;28;20043;-83
2021/01/10 10:32:18;;;;;;;8.63;4.00;;;1.40;79.00;;;;;;5053343;28;20090;-83
2021/01/10 10:34:44;;;;;;;10.30;4.50;;;1.40;78.60;;;;;;5053517;28;20377;-84
2021/01/10 10:37:10;;;;;;;8.43;4.43;;;1.40;78.90;;;;;;5051813;28;20025;-84
2021/01/10 10:39:36;;;;;;;8.33;4.37;;;1.50;77.80;;;;;;5052987;28;20083;-84
2021/01/10 10:42:04;;;;;;;9.10;4.57;;;1.60;76.00;;;;;;5052708;28;20131;-83
2021/01/10 10:44:30;;;;;;;8.33;4.17;;;1.60;76.70;;;;;;5052779;28;20063;-84
2021/01/10 10:46:56;;;;;;;9.13;4.40;;;1.60;76.10;;;;;;5052769;28;20053;-84
2021/01/10 10:49:22;;;;;;;8.60;4.43;;;1.70;75.80;;;;;;5051885;28;20033;-84
2021/01/10 10:51:47;;;;;;;8.67;4.57;;;1.70;76.00;;;;;;5052531;28;20482;-85
2021/01/10 10:54:14;;;;;;;8.03;4.13;;;1.80;75.70;;;;;;5052840;28;20021;-85
2021/01/10 10:56:41;;;;;;;14.77;5.07;;;1.80;75.50;;;;;;5053789;28;20135;-84
2021/01/10 10:59:08;;;;;;;8.30;4.17;;;1.80;75.00;;;;;;5052300;28;20021;-80
2021/01/10 11:01:44;;;;;;;9.63;4.50;;;1.80;74.80;;;;;;5052563;28;20025;-85
2021/01/10 11:04:10;;;;;;;9.33;4.33;;;1.80;75.40;;;;;;5053100;28;20023;-83
2021/01/10 11:06:36;;;;;;;8.97;4.80;;;1.90;75.70;;;;;;5052494;28;20459;-84
2021/01/10 11:09:09;;;;;;;7.77;3.87;;;2.00;75.40;;;;;;5052415;28;20037;-83
2021/01/10 11:11:35;;;;;;;;;;;2.00;74.90;;;;;;5053985;28;20036;-84
2021/01/10 11:14:01;;;;;;;9.80;4.03;;;2.00;73.50;;;;;;5039751;28;20353;-84
2021/01/10 11:16:35;;;;;;;7.57;4.20;;;2.00;74.00;;;;;;5032201;28;20035;-85
2021/01/10 11:19:01;;;;;;;9.50;4.20;;;2.10;74.20;;;;;;5032545;28;20030;-85
2021/01/10 11:21:32;;;;;;;6.13;3.87;;;2.10;74.50;;;;;;5032958;28;20080;-85
2021/01/10 11:23:58;;;;;;;8.07;4.23;;;2.10;74.10;;;;;;5034715;28;20032;-84
2021/01/10 11:26:24;;;;;;;7.50;3.97;;;2.20;73.80;;;;;;5035914;28;20030;-84
2021/01/10 11:28:50;;;;;;;7.60;4.20;;;2.20;73.10;;;;;;5037325;28;20044;-86
2021/01/10 11:31:17;;;;;;;6.77;3.60;;;2.20;72.50;;;;;;5035486;28;20032;-83
2021/01/10 11:33:42;;;;;;;8.47;3.97;;;2.20;73.30;;;;;;5035819;28;20066;-84
2021/01/10 11:36:08;;;;;;;7.53;3.90;;;2.30;73.00;;;;;;5036549;28;20104;-83
2021/01/10 11:38:35;;;;;;;7.07;3.90;;;2.30;73.90;;;;;;5036370;28;20032;-83
2021/01/10 11:41:11;;;;;;;10.07;3.67;;;2.30;72.30;;;;;;5037000;28;20025;-83
2021/01/10 11:43:38;;;;;;;8.53;4.27;;;2.30;71.70;;;;;;5037210;28;20022;-85
2021/01/10 11:46:08;;;;;;;7.03;3.77;;;2.40;71.30;;;;;;5035939;28;20366;-82
2021/01/10 11:48:35;;;;;;;7.27;3.70;;;2.40;72.20;;;;;;5036812;28;20021;-83
2021/01/10 11:51:02;;;;;;;7.67;4.17;;;2.40;71.30;;;;;;5036064;28;20441;-83
2021/01/10 11:53:28;;;;;;;5.33;3.23;;;2.40;72.10;;;;;;5036463;28;20033;-83
2021/01/10 11:55:54;;;;;;;6.70;3.40;;;2.40;70.70;;;;;;5037049;28;20053;-84
2021/01/10 11:58:20;;;;;;;6.23;3.40;;;2.40;71.20;;;;;;5035517;28;20079;-83
2021/01/10 12:00:52;;;;;;;6.50;3.83;;;2.50;70.50;;;;;;5035747;28;20539;-83
2021/01/10 12:03:23;;;;;;;6.90;3.80;;;2.50;70.80;;;;;;5035477;28;20025;-83
2021/01/10 12:05:51;;;;;;;4.73;2.97;;;2.60;71.70;;;;;;5036651;28;20028;-84
2021/01/10 12:08:18;;;;;;;5.60;3.07;;;2.60;71.30;;;;;;5036252;28;20047;-84
2021/01/10 12:10:44;;;;;;;6.53;3.07;;;2.80;69.10;;;;;;5036647;28;20033;-84
2021/01/10 12:13:10;;;;;;;5.50;3.37;;;3.00;68.50;;;;;;5035949;28;20030;-83
2021/01/10 12:15:36;;;;;;;5.33;2.87;;;3.10;67.30;;;;;;5035411;28;20087;-83
2021/01/10 12:18:04;;;;;;;5.13;2.87;;;3.30;67.10;;;;;;5036548;28;20075;-84
2021/01/10 12:20:31;;;;;;;7.23;3.20;;;3.50;68.00;;;;;;5034763;28;20076;-83
2021/01/10 12:22:56;;;;;;;5.80;3.20;;;3.70;66.90;;;;;;5035490;28;20052;-84
2021/01/10 12:25:22;;;;;;;6.20;3.10;;;3.90;64.00;;;;;;5034821;28;20454;-83
2021/01/10 12:27:48;;;;;;;4.90;2.90;;;4.10;63.60;;;;;;5036303;28;20018;-83
2021/01/10 12:30:15;;;;;;;4.53;2.67;;;4.40;62.60;;;;;;5034857;28;20025;-83
2021/01/10 12:32:41;;;;;;;4.77;3.10;;;4.60;62.80;;;;;;5035680;28;20044;-84
2021/01/10 12:35:11;;;;;;;4.30;2.50;;;4.90;62.60;;;;;;5034772;28;20466;-84
2021/01/10 12:37:37;;;;;;;5.03;2.90;;;4.80;61.90;;;;;;5036099;28;20366;-83
2021/01/10 12:40:06;;;;;;;6.43;3.13;;;4.80;61.20;;;;;;5035261;28;20026;-84
2021/01/10 12:42:32;;;;;;;5.20;3.03;;;5.00;60.00;;;;;;5035560;28;20021;-84
2021/01/10 12:44:57;;;;;;;4.63;2.77;;;5.10;59.80;;;;;;5036088;28;20068;-84
2021/01/10 12:47:23;;;;;;;5.37;3.30;;;5.20;59.20;;;;;;5034548;28;20485;-83
2021/01/10 12:49:49;;;;;;;5.57;3.43;;;5.10;60.50;;;;;;5036024;28;20109;-83
2021/01/10 12:52:14;;;;;;;5.53;2.87;;;5.00;60.70;;;;;;5034323;28;20033;-83
2021/01/10 12:54:40;;;;;;;5.80;3.07;;;5.00;60.50;;;;;;5035895;28;20025;-83
2021/01/10 12:57:06;;;;;;;4.13;2.87;;;4.90;60.60;;;;;;5035906;28;20018;-84
2021/01/10 12:59:32;;;;;;;5.90;3.00;;;5.00;60.70;;;;;;5034803;28;20034;-82
2021/01/10 13:01:57;;;;;;;5.33;2.93;;;5.00;59.80;;;;;;5034526;28;20022;-83